createdAt,value
2018-06-28T00:00:41.480Z,3.10
2018-06-28T00:01:41.466Z,3.20
2018-06-28T00:02:41.462Z,2.70
2018-06-28T00:03:41.439Z,3.10
2018-06-28T00:04:41.429Z,3.40
2018-06-28T00:05:41.412Z,3.00
2018-06-28T00:06:41.400Z,3.10
2018-06-28T00:07:41.388Z,3.20
2018-06-28T00:08:41.370Z,3.40
2018-06-28T00:09:41.358Z,3.00
2018-06-28T00:10:41.350Z,2.90
2018-06-28T00:11:41.328Z,3.00
2018-06-28T00:12:41.317Z,3.00
2018-06-28T00:13:41.303Z,3.40
2018-06-28T00:14:41.290Z,3.00
2018-06-28T00:15:41.274Z,3.50
2018-06-28T00:16:41.409Z,3.80
2018-06-28T00:17:41.249Z,3.30
2018-06-28T00:18:41.238Z,3.30
2018-06-28T00:19:41.217Z,3.40
2018-06-28T00:20:41.206Z,3.20
2018-06-28T00:21:41.190Z,3.50
2018-06-28T00:22:41.174Z,3.00
2018-06-28T00:23:41.166Z,3.50
2018-06-28T00:24:41.148Z,3.20
2018-06-28T00:25:41.136Z,3.50
2018-06-28T00:26:41.121Z,3.40
2018-06-28T00:27:41.110Z,3.80
2018-06-28T00:28:41.099Z,3.80
2018-06-28T00:29:41.080Z,3.20
2018-06-28T00:30:41.063Z,3.60
2018-06-28T00:31:41.049Z,3.60
2018-06-28T00:32:41.046Z,3.20
2018-06-28T00:33:41.024Z,3.60
2018-06-28T00:34:41.009Z,3.60
2018-06-28T00:35:41.003Z,4.10
2018-06-28T00:36:40.981Z,4.10
2018-06-28T00:37:40.969Z,3.70
2018-06-28T00:38:40.953Z,3.70
2018-06-28T00:39:40.942Z,3.30
2018-06-28T00:40:40.925Z,3.40
2018-06-28T00:41:40.910Z,4.00
2018-06-28T00:42:40.900Z,3.80
2018-06-28T00:43:40.989Z,4.70
2018-06-28T00:44:40.868Z,4.30
2018-06-28T00:45:40.858Z,3.50
2018-06-28T00:46:40.838Z,4.00
2018-06-28T00:47:40.826Z,3.80
2018-06-28T00:48:40.810Z,3.70
2018-06-28T00:49:40.804Z,4.20
2018-06-28T00:50:40.793Z,4.20
2018-06-28T00:51:40.769Z,3.90
2018-06-28T00:52:40.756Z,4.20
2018-06-28T00:53:40.748Z,3.80
2018-06-28T00:54:40.730Z,4.50
2018-06-28T00:55:40.718Z,4.10
2018-06-28T00:56:40.700Z,3.80
2018-06-28T00:57:40.696Z,4.10
2018-06-28T00:58:40.673Z,4.30
2018-06-28T00:59:40.765Z,4.40
2018-06-28T01:00:40.645Z,3.80
2018-06-28T01:01:40.628Z,4.20
2018-06-28T01:02:40.624Z,4.60
2018-06-28T01:03:40.603Z,4.10
2018-06-28T01:04:40.591Z,4.00
2018-06-28T01:05:40.575Z,4.00
2018-06-28T01:06:40.560Z,3.40
2018-06-28T01:07:40.551Z,3.70
2018-06-28T01:08:40.531Z,4.30
2018-06-28T01:09:40.521Z,4.20
2018-06-28T01:10:40.506Z,4.20
2018-06-28T01:11:40.490Z,3.70
2018-06-28T01:12:40.479Z,4.20
2018-06-28T01:13:40.469Z,3.80
2018-06-28T01:14:40.450Z,4.00
2018-06-28T01:15:40.616Z,4.10
2018-06-28T01:16:40.420Z,3.60
2018-06-28T01:17:40.405Z,3.70
2018-06-28T01:18:40.546Z,3.50
2018-06-28T01:19:40.374Z,4.20
2018-06-28T01:20:40.360Z,3.90
2018-06-28T01:21:40.350Z,3.80
2018-06-28T01:22:40.340Z,3.60
2018-06-28T01:23:40.319Z,4.10
2018-06-28T01:24:40.303Z,4.20
2018-06-28T01:25:40.299Z,3.80
2018-06-28T01:26:40.280Z,3.60
2018-06-28T01:27:40.264Z,3.60
2018-06-28T01:28:40.248Z,3.70
2018-06-28T01:29:40.233Z,3.80
2018-06-28T01:30:40.220Z,3.30
2018-06-28T01:31:40.216Z,3.10
2018-06-28T01:32:40.192Z,3.80
2018-06-28T01:33:40.178Z,3.50
2018-06-28T01:34:40.172Z,3.40
2018-06-28T01:35:40.150Z,3.90
2018-06-28T01:36:40.138Z,4.00
2018-06-28T01:37:40.123Z,3.20
2018-06-28T01:38:40.116Z,4.20
2018-06-28T01:39:40.092Z,3.80
2018-06-28T01:40:40.082Z,3.90
2018-06-28T01:41:40.068Z,4.10
2018-06-28T01:42:40.108Z,3.70
2018-06-28T01:43:40.038Z,3.80
2018-06-28T01:44:40.023Z,3.80
2018-06-28T01:45:40.012Z,3.70
2018-06-28T01:46:39.992Z,4.20
2018-06-28T01:47:39.978Z,4.30
2018-06-28T01:48:39.966Z,4.00
2018-06-28T01:49:39.947Z,3.90
2018-06-28T01:50:39.935Z,4.00
2018-06-28T01:51:39.920Z,4.10
2018-06-28T01:52:39.906Z,4.70
2018-06-28T01:53:39.892Z,4.50
2018-06-28T01:54:39.878Z,5.10
2018-06-28T01:55:39.868Z,4.80
2018-06-28T01:56:39.851Z,5.20
2018-06-28T01:57:39.837Z,5.00
2018-06-28T01:58:39.869Z,5.10
2018-06-28T01:59:39.805Z,4.90
2018-06-28T02:00:39.800Z,4.40
2018-06-28T02:01:39.925Z,5.30
2018-06-28T02:02:39.768Z,5.40
2018-06-28T02:03:39.749Z,5.40
2018-06-28T02:04:39.733Z,5.20
2018-06-28T02:05:39.718Z,5.10
2018-06-28T02:06:39.710Z,5.20
2018-06-28T02:07:39.689Z,5.50
2018-06-28T02:08:39.675Z,5.60
2018-06-28T02:09:39.665Z,6.50
2018-06-28T02:10:39.646Z,7.10
2018-06-28T02:11:39.636Z,7.30
2018-06-28T02:12:39.622Z,7.70
2018-06-28T02:13:39.605Z,7.60
2018-06-28T02:14:39.591Z,6.20
2018-06-28T02:15:39.579Z,6.50
2018-06-28T02:16:39.560Z,6.30
2018-06-28T02:17:39.547Z,6.30
2018-06-28T02:18:39.535Z,6.50
2018-06-28T02:19:39.519Z,6.60
2018-06-28T02:20:39.503Z,7.10
2018-06-28T02:21:39.491Z,6.50
2018-06-28T02:22:39.485Z,6.00
2018-06-28T02:23:39.462Z,6.60
2018-06-28T02:24:39.446Z,6.00
2018-06-28T02:25:39.438Z,5.50
2018-06-28T02:26:39.417Z,5.60
2018-06-28T02:27:39.404Z,6.00
2018-06-28T02:28:39.388Z,4.90
2018-06-28T02:29:39.377Z,5.20
2018-06-28T02:30:39.368Z,5.20
2018-06-28T02:31:39.347Z,5.10
2018-06-28T02:32:39.338Z,5.90
2018-06-28T02:33:39.322Z,6.00
2018-06-28T02:34:39.305Z,5.30
2018-06-28T02:35:39.287Z,5.50
2018-06-28T02:36:39.276Z,5.30
2018-06-28T02:37:39.257Z,4.90
2018-06-28T02:38:39.250Z,4.90
2018-06-28T02:39:39.228Z,5.30
2018-06-28T02:40:39.211Z,5.00
2018-06-28T02:41:39.202Z,4.80
2018-06-28T02:42:39.191Z,5.10
2018-06-28T02:43:39.169Z,5.60
2018-06-28T02:44:39.207Z,4.50
2018-06-28T02:45:39.146Z,5.00
2018-06-28T02:46:39.134Z,5.30
2018-06-28T02:47:39.110Z,5.10
2018-06-28T02:48:39.099Z,4.90
2018-06-28T02:49:39.083Z,5.20
2018-06-28T02:50:39.069Z,5.10
2018-06-28T02:51:39.059Z,4.30
2018-06-28T02:52:39.037Z,4.60
2018-06-28T02:53:39.031Z,4.60
2018-06-28T02:54:39.016Z,4.60
2018-06-28T02:55:38.992Z,4.60
2018-06-28T02:56:38.981Z,4.60
2018-06-28T02:57:38.966Z,4.80
2018-06-28T02:58:38.951Z,5.00
2018-06-28T02:59:38.937Z,4.70
2018-06-28T03:00:39.090Z,5.10
2018-06-28T03:01:38.912Z,5.40
2018-06-28T03:02:38.891Z,4.90
2018-06-28T03:03:38.927Z,5.20
2018-06-28T03:04:38.860Z,5.00
2018-06-28T03:05:38.845Z,5.00
2018-06-28T03:06:38.829Z,5.10
2018-06-28T03:07:38.816Z,4.70
2018-06-28T03:08:38.804Z,5.10
2018-06-28T03:09:38.786Z,5.10
2018-06-28T03:10:38.776Z,4.80
2018-06-28T03:11:38.857Z,4.70
2018-06-28T03:12:38.745Z,4.60
2018-06-28T03:13:38.725Z,4.80
2018-06-28T03:14:38.712Z,5.00
2018-06-28T03:15:38.697Z,5.20
2018-06-28T03:16:38.681Z,5.40
2018-06-28T03:17:38.666Z,4.90
2018-06-28T03:18:38.654Z,5.00
2018-06-28T03:19:38.640Z,5.00
2018-06-28T03:20:38.621Z,5.20
2018-06-28T03:21:38.609Z,4.50
2018-06-28T03:22:38.593Z,4.50
2018-06-28T03:23:38.580Z,5.00
2018-06-28T03:24:38.561Z,5.60
2018-06-28T03:25:38.549Z,4.70
2018-06-28T03:26:38.532Z,4.70
2018-06-28T03:27:38.586Z,5.00
2018-06-28T03:28:38.507Z,5.10
2018-06-28T03:29:38.490Z,5.10
2018-06-28T03:30:38.477Z,5.10
2018-06-28T03:31:38.468Z,5.20
2018-06-28T03:32:38.444Z,5.50
2018-06-28T03:33:38.426Z,6.10
2018-06-28T03:34:38.419Z,5.90
2018-06-28T03:35:38.403Z,5.50
2018-06-28T03:36:38.389Z,5.70
2018-06-28T03:37:38.464Z,6.30
2018-06-28T03:38:38.356Z,5.90
2018-06-28T03:39:38.341Z,6.10
2018-06-28T03:40:38.329Z,6.00
2018-06-28T03:41:38.310Z,5.70
2018-06-28T03:42:38.293Z,6.30
2018-06-28T03:43:38.283Z,6.40
2018-06-28T03:44:38.270Z,6.30
2018-06-28T03:45:38.249Z,6.80
2018-06-28T03:46:38.261Z,7.20
2018-06-28T03:47:38.224Z,7.00
2018-06-28T03:48:38.209Z,5.90
2018-06-28T03:49:38.192Z,6.90
2018-06-28T03:50:38.178Z,6.00
2018-06-28T03:51:38.159Z,5.70
2018-06-28T03:52:38.143Z,6.70
2018-06-28T03:53:38.132Z,5.40
2018-06-28T03:54:38.119Z,6.10
2018-06-28T03:55:38.102Z,6.10
2018-06-28T03:56:38.082Z,5.90
2018-06-28T03:57:38.072Z,6.10
2018-06-28T03:58:38.056Z,6.80
2018-06-28T03:59:38.044Z,5.70
2018-06-28T04:00:38.025Z,6.20
2018-06-28T04:01:38.007Z,6.20
2018-06-28T04:02:37.994Z,6.60
2018-06-28T04:03:37.980Z,7.10
2018-06-28T04:04:37.961Z,6.90
2018-06-28T04:05:37.949Z,7.80
2018-06-28T04:06:37.997Z,7.30
2018-06-28T04:07:37.923Z,7.00
2018-06-28T04:08:37.900Z,7.00
2018-06-28T04:09:37.886Z,7.10
2018-06-28T04:10:37.983Z,7.10
2018-06-28T04:11:37.857Z,6.50
2018-06-28T04:12:37.840Z,6.80
2018-06-28T04:13:37.830Z,6.50
2018-06-28T04:14:37.817Z,6.20
2018-06-28T04:15:37.801Z,6.30
2018-06-28T04:16:37.906Z,6.20
2018-06-28T04:17:37.770Z,7.20
2018-06-28T04:18:37.753Z,6.80
2018-06-28T04:19:37.738Z,6.40
2018-06-28T04:20:37.723Z,6.40
2018-06-28T04:21:37.707Z,6.50
2018-06-28T04:22:37.690Z,5.80
2018-06-28T04:23:37.681Z,7.00
2018-06-28T04:24:37.662Z,6.40
2018-06-28T04:25:37.655Z,6.30
2018-06-28T04:26:37.635Z,7.20
2018-06-28T04:27:37.623Z,7.00
2018-06-28T04:28:37.599Z,7.20
2018-06-28T04:29:37.690Z,7.40
2018-06-28T04:30:37.570Z,7.70
2018-06-28T04:31:37.554Z,6.80
2018-06-28T04:32:37.588Z,7.30
2018-06-28T04:33:37.558Z,6.60
2018-06-28T04:34:37.516Z,6.40
2018-06-28T04:35:37.507Z,7.20
2018-06-28T04:36:37.481Z,6.10
2018-06-28T04:37:37.465Z,6.90
2018-06-28T04:38:37.451Z,7.10
2018-06-28T04:39:37.436Z,7.30
2018-06-28T04:40:37.420Z,7.00
2018-06-28T04:41:37.405Z,7.10
2018-06-28T04:42:37.394Z,7.80
2018-06-28T04:43:37.380Z,7.20
2018-06-28T04:44:37.359Z,7.00
2018-06-28T04:45:37.439Z,7.30
2018-06-28T04:46:37.330Z,7.10
2018-06-28T04:47:37.317Z,7.30
2018-06-28T04:48:37.300Z,7.40
2018-06-28T04:49:37.290Z,7.00
2018-06-28T04:50:37.282Z,7.70
2018-06-28T04:51:37.253Z,7.30
2018-06-28T04:52:37.241Z,7.40
2018-06-28T04:53:37.230Z,7.60
2018-06-28T04:54:37.217Z,7.30
2018-06-28T04:55:37.196Z,7.00
2018-06-28T04:56:37.183Z,6.60
2018-06-28T04:57:37.168Z,7.10
2018-06-28T04:58:37.152Z,6.50
2018-06-28T04:59:37.146Z,6.50
2018-06-28T05:00:37.121Z,7.50
2018-06-28T05:01:37.107Z,7.30
2018-06-28T05:02:37.094Z,7.30
2018-06-28T05:03:37.078Z,6.30
2018-06-28T05:04:37.068Z,7.40
2018-06-28T05:05:37.048Z,7.50
2018-06-28T05:06:37.044Z,7.00
2018-06-28T05:07:37.018Z,8.00
2018-06-28T05:08:37.002Z,8.90
2018-06-28T05:09:36.991Z,8.10
2018-06-28T05:10:36.978Z,8.00
2018-06-28T05:11:36.959Z,7.80
2018-06-28T05:12:36.946Z,8.20
2018-06-28T05:13:36.928Z,7.70
2018-06-28T05:14:36.915Z,8.10
2018-06-28T05:15:36.914Z,8.90
2018-06-28T05:16:36.883Z,8.60
2018-06-28T05:17:36.870Z,9.10
2018-06-28T05:18:36.858Z,8.90
2018-06-28T05:19:36.841Z,10.00
2018-06-28T05:20:36.829Z,9.90
2018-06-28T05:21:36.811Z,9.00
2018-06-28T05:22:36.794Z,8.90
2018-06-28T05:23:36.780Z,8.30
2018-06-28T05:24:36.771Z,8.90
2018-06-28T05:25:36.757Z,9.60
2018-06-28T05:26:36.739Z,9.30
2018-06-28T05:27:36.720Z,10.00
2018-06-28T05:28:36.708Z,9.10
2018-06-28T05:29:36.701Z,8.90
2018-06-28T05:30:36.679Z,8.90
2018-06-28T05:31:36.813Z,9.80
2018-06-28T05:32:36.649Z,9.50
2018-06-28T05:33:36.635Z,9.30
2018-06-28T05:34:36.644Z,10.40
2018-06-28T05:35:36.605Z,9.30
2018-06-28T05:36:36.591Z,8.90
2018-06-28T05:37:36.576Z,7.80
2018-06-28T05:38:36.568Z,9.10
2018-06-28T05:39:36.546Z,7.80
2018-06-28T05:40:36.531Z,8.00
2018-06-28T05:41:36.564Z,8.40
2018-06-28T05:42:36.510Z,8.20
2018-06-28T05:43:36.490Z,8.60
2018-06-28T05:44:36.486Z,7.90
2018-06-28T05:45:36.463Z,8.20
2018-06-28T05:46:36.448Z,8.10
2018-06-28T05:47:36.429Z,8.80
2018-06-28T05:48:36.420Z,7.90
2018-06-28T05:49:36.405Z,7.80
2018-06-28T05:50:36.394Z,8.00
2018-06-28T05:51:36.373Z,7.50
2018-06-28T05:52:36.359Z,7.70
2018-06-28T05:53:36.349Z,8.40
2018-06-28T05:54:36.330Z,8.10
2018-06-28T05:55:36.429Z,8.30
2018-06-28T05:56:36.298Z,8.10
2018-06-28T05:57:36.291Z,8.10
2018-06-28T05:58:36.374Z,7.70
2018-06-28T05:59:36.261Z,7.00
2018-06-28T06:00:36.245Z,7.70
2018-06-28T06:01:36.231Z,7.60
2018-06-28T06:02:36.215Z,7.00
2018-06-28T06:03:36.200Z,6.60
2018-06-28T06:04:36.184Z,6.50
2018-06-28T06:05:36.178Z,6.70
2018-06-28T06:06:36.168Z,7.00
2018-06-28T06:07:36.149Z,6.70
2018-06-28T06:08:36.131Z,6.10
2018-06-28T06:09:36.120Z,6.80
2018-06-28T06:10:36.104Z,6.70
2018-06-28T06:11:36.091Z,6.90
2018-06-28T06:12:36.075Z,7.00
2018-06-28T06:13:36.058Z,6.80
2018-06-28T06:14:36.053Z,7.00
2018-06-28T06:15:36.031Z,6.90
2018-06-28T06:16:36.019Z,6.50
2018-06-28T06:17:36.108Z,6.40
2018-06-28T06:18:35.993Z,6.70
2018-06-28T06:19:35.981Z,5.80
2018-06-28T06:20:35.962Z,6.10
2018-06-28T06:21:35.949Z,5.90
2018-06-28T06:22:35.932Z,5.90
2018-06-28T06:23:35.918Z,5.80
2018-06-28T06:24:35.908Z,6.10
2018-06-28T06:25:35.890Z,6.10
2018-06-28T06:26:35.879Z,7.10
2018-06-28T06:27:35.865Z,6.40
2018-06-28T06:28:35.847Z,6.10
2018-06-28T06:29:35.837Z,6.60
2018-06-28T06:30:35.825Z,6.40
2018-06-28T06:31:35.808Z,5.90
2018-06-28T06:32:35.791Z,7.30
2018-06-28T06:33:35.782Z,6.70
2018-06-28T06:34:35.772Z,6.70
2018-06-28T06:35:35.751Z,6.70
2018-06-28T06:36:35.735Z,6.60
2018-06-28T06:37:35.722Z,6.00
2018-06-28T06:38:35.711Z,6.40
2018-06-28T06:39:35.702Z,6.30
2018-06-28T06:40:35.681Z,5.90
2018-06-28T06:41:35.719Z,6.40
2018-06-28T06:42:35.651Z,5.90
2018-06-28T06:43:35.647Z,5.70
2018-06-28T06:44:35.622Z,5.90
2018-06-28T06:45:35.611Z,5.60
2018-06-28T06:46:35.596Z,5.30
2018-06-28T06:47:35.584Z,6.00
2018-06-28T06:48:35.567Z,5.70
2018-06-28T06:49:35.559Z,6.10
2018-06-28T06:50:35.543Z,5.90
2018-06-28T06:51:35.532Z,5.80
2018-06-28T06:52:35.511Z,6.00
2018-06-28T06:53:35.500Z,6.20
2018-06-28T06:54:35.484Z,5.30
2018-06-28T06:55:35.473Z,5.20
2018-06-28T06:56:35.456Z,5.60
2018-06-28T06:57:35.491Z,5.30
2018-06-28T06:58:35.427Z,5.20
2018-06-28T06:59:35.415Z,5.10
2018-06-28T07:00:35.461Z,5.10
2018-06-28T07:01:35.396Z,4.90
2018-06-28T07:02:35.380Z,4.70
2018-06-28T07:03:35.411Z,4.60
2018-06-28T07:04:35.351Z,4.80
2018-06-28T07:05:35.341Z,4.80
2018-06-28T07:06:35.321Z,4.90
2018-06-28T07:07:35.323Z,4.70
2018-06-28T07:08:35.302Z,5.10
2018-06-28T07:09:35.284Z,4.50
2018-06-28T07:10:35.267Z,4.60
2018-06-28T07:11:35.255Z,4.20
2018-06-28T07:12:35.244Z,4.90
2018-06-28T07:13:35.235Z,4.60
2018-06-28T07:14:35.221Z,5.00
2018-06-28T07:15:35.201Z,4.30
2018-06-28T07:16:35.188Z,4.50
2018-06-28T07:17:35.176Z,4.70
2018-06-28T07:18:35.160Z,4.90
2018-06-28T07:19:35.168Z,4.60
2018-06-28T07:20:35.131Z,4.50
2018-06-28T07:21:35.230Z,4.60
2018-06-28T07:22:35.109Z,5.20
2018-06-28T07:23:35.091Z,4.20
2018-06-28T07:24:35.188Z,4.20
2018-06-28T07:25:35.068Z,4.20
2018-06-28T07:26:35.061Z,4.20
2018-06-28T07:27:35.045Z,4.30
2018-06-28T07:28:35.083Z,4.60
2018-06-28T07:29:35.015Z,4.20
2018-06-28T07:30:35.000Z,4.00
2018-06-28T07:31:34.989Z,3.70
2018-06-28T07:32:34.974Z,4.10
2018-06-28T07:33:34.960Z,3.80
2018-06-28T07:34:34.955Z,3.70
2018-06-28T07:35:34.937Z,4.20
2018-06-28T07:36:34.921Z,4.10
2018-06-28T07:37:34.918Z,3.60
2018-06-28T07:38:34.896Z,3.70
2018-06-28T07:39:34.885Z,3.30
2018-06-28T07:40:35.018Z,3.50
2018-06-28T07:41:34.855Z,3.60
2018-06-28T07:42:34.845Z,3.70
2018-06-28T07:43:34.882Z,3.70
2018-06-28T07:44:34.831Z,3.70
2018-06-28T07:45:34.809Z,3.10
2018-06-28T07:46:34.815Z,3.40
2018-06-28T07:47:34.780Z,3.90
2018-06-28T07:48:34.768Z,3.70
2018-06-28T07:49:34.753Z,3.60
2018-06-28T07:50:34.745Z,4.10
2018-06-28T07:51:34.731Z,3.80
2018-06-28T07:52:34.713Z,3.90
2018-06-28T07:53:34.708Z,3.80
2018-06-28T07:54:34.693Z,3.80
2018-06-28T07:55:34.681Z,3.20
2018-06-28T07:56:34.725Z,3.50
2018-06-28T07:57:34.649Z,3.30
2018-06-28T07:58:34.642Z,3.90
2018-06-28T07:59:34.625Z,3.40
2018-06-28T08:00:34.620Z,3.80
2018-06-28T08:01:34.601Z,3.40
2018-06-28T08:02:34.635Z,3.70
2018-06-28T08:03:34.583Z,3.80
2018-06-28T08:04:34.580Z,3.80
2018-06-28T08:05:34.550Z,4.20
2018-06-28T08:06:34.548Z,3.80
2018-06-28T08:07:34.534Z,4.00
2018-06-28T08:08:34.516Z,3.10
2018-06-28T08:09:34.503Z,3.10
2018-06-28T08:10:34.491Z,3.40
2018-06-28T08:11:34.485Z,3.70
2018-06-28T08:12:34.470Z,3.40
2018-06-28T08:13:34.452Z,2.90
2018-06-28T08:14:34.451Z,2.70
2018-06-28T08:15:34.429Z,3.30
2018-06-28T08:16:34.425Z,2.90
2018-06-28T08:17:34.404Z,3.10
2018-06-28T08:18:34.399Z,3.00
2018-06-28T08:19:34.381Z,2.70
2018-06-28T08:20:34.435Z,2.90
2018-06-28T08:21:34.380Z,2.90
2018-06-28T08:22:34.344Z,2.90
2018-06-28T08:23:34.338Z,3.00
2018-06-28T08:24:34.324Z,3.00
2018-06-28T08:25:34.310Z,3.50
2018-06-28T08:26:34.309Z,3.60
2018-06-28T08:27:34.287Z,3.00
2018-06-28T08:28:34.277Z,3.10
2018-06-28T08:29:34.263Z,3.10
2018-06-28T08:30:34.251Z,2.80
2018-06-28T08:31:34.244Z,3.30
2018-06-28T08:32:34.241Z,2.80
2018-06-28T08:33:34.222Z,3.30
2018-06-28T08:34:34.205Z,3.80
2018-06-28T08:35:34.191Z,3.10
2018-06-28T08:36:34.183Z,3.50
2018-06-28T08:37:34.171Z,3.20
2018-06-28T08:38:34.159Z,3.10
2018-06-28T08:39:34.144Z,3.20
2018-06-28T08:40:34.139Z,3.40
2018-06-28T08:41:34.128Z,3.20
2018-06-28T08:42:34.112Z,3.20
2018-06-28T08:43:34.098Z,3.20
2018-06-28T08:44:34.094Z,3.10
2018-06-28T08:45:34.084Z,2.70
2018-06-28T08:46:34.064Z,2.80
2018-06-28T08:47:34.051Z,2.70
2018-06-28T08:48:34.040Z,2.60
2018-06-28T08:49:34.032Z,2.70
2018-06-28T08:50:34.022Z,3.10
2018-06-28T08:51:34.018Z,2.60
2018-06-28T08:52:34.090Z,3.50
2018-06-28T08:53:33.988Z,2.90
2018-06-28T08:54:33.973Z,2.50
2018-06-28T08:55:33.963Z,2.70
2018-06-28T08:56:33.950Z,3.10
2018-06-28T08:57:33.966Z,2.80
2018-06-28T08:58:33.934Z,2.70
2018-06-28T08:59:33.917Z,3.10
2018-06-28T09:00:33.907Z,2.90
2018-06-28T09:01:33.902Z,2.70
2018-06-28T09:02:33.893Z,3.10
2018-06-28T09:03:33.875Z,2.60
2018-06-28T09:04:33.868Z,2.80
2018-06-28T09:05:33.863Z,2.70
2018-06-28T09:06:33.839Z,2.60
2018-06-28T09:07:33.829Z,2.40
2018-06-28T09:08:33.818Z,2.50
2018-06-28T09:09:33.811Z,2.20
2018-06-28T09:10:33.809Z,2.00
2018-06-28T09:11:33.787Z,2.50
2018-06-28T09:12:33.775Z,2.40
2018-06-28T09:13:33.769Z,2.40
2018-06-28T09:14:33.756Z,2.40
2018-06-28T09:15:33.741Z,1.90
2018-06-28T09:16:33.784Z,2.20
2018-06-28T09:17:33.720Z,2.60
2018-06-28T09:18:33.709Z,2.00
2018-06-28T09:19:33.720Z,2.00
2018-06-28T09:20:33.692Z,2.50
2018-06-28T09:21:33.679Z,2.20
2018-06-28T09:22:33.742Z,2.40
2018-06-28T09:23:33.657Z,2.80
2018-06-28T09:24:33.644Z,2.50
2018-06-28T09:25:33.638Z,2.10
2018-06-28T09:26:33.627Z,2.20
2018-06-28T09:27:33.614Z,2.10
2018-06-28T09:28:33.602Z,2.40
2018-06-28T09:29:33.600Z,2.30
2018-06-28T09:30:33.584Z,2.50
2018-06-28T09:31:33.571Z,2.30
2018-06-28T09:32:33.617Z,2.70
2018-06-28T09:33:33.562Z,2.40
2018-06-28T09:34:33.538Z,2.50
2018-06-28T09:35:33.529Z,2.20
2018-06-28T09:36:33.521Z,2.50
2018-06-28T09:37:33.511Z,2.60
2018-06-28T09:38:33.499Z,2.90
2018-06-28T09:39:33.488Z,2.90
2018-06-28T09:40:33.472Z,2.50
2018-06-28T09:41:33.466Z,2.20
2018-06-28T09:42:33.454Z,2.00
2018-06-28T09:43:33.483Z,2.30
2018-06-28T09:44:33.443Z,2.30
2018-06-28T09:45:33.421Z,2.20
2018-06-28T09:46:33.417Z,2.30
2018-06-28T09:47:33.405Z,2.40
2018-06-28T09:48:33.439Z,2.50
2018-06-28T09:49:33.387Z,2.50
2018-06-28T09:50:33.367Z,2.10
2018-06-28T09:51:33.360Z,2.10
2018-06-28T09:52:33.351Z,2.20
2018-06-28T09:53:33.340Z,2.20
2018-06-28T09:54:33.328Z,2.30
2018-06-28T09:55:33.312Z,2.30
2018-06-28T09:56:33.358Z,2.20
2018-06-28T09:57:33.296Z,2.10
2018-06-28T09:58:33.284Z,2.30
2018-06-28T09:59:33.271Z,2.20
2018-06-28T10:00:33.408Z,2.20
2018-06-28T10:01:33.253Z,2.70
2018-06-28T10:02:33.243Z,2.50
2018-06-28T10:03:33.231Z,1.90
2018-06-28T10:04:33.217Z,2.10
2018-06-28T10:05:33.206Z,2.70
2018-06-28T10:06:33.197Z,2.40
2018-06-28T10:07:33.183Z,2.50
2018-06-28T10:08:33.173Z,2.30
2018-06-28T10:09:33.173Z,2.20
2018-06-28T10:10:33.150Z,2.10
2018-06-28T10:11:33.142Z,2.40
2018-06-28T10:12:33.192Z,2.00
2018-06-28T10:13:33.122Z,1.70
2018-06-28T10:14:33.110Z,1.90
2018-06-28T10:15:33.104Z,2.10
2018-06-28T10:16:33.091Z,1.90
2018-06-28T10:17:33.079Z,2.20
2018-06-28T10:18:33.072Z,2.30
2018-06-28T10:19:33.066Z,2.10
2018-06-28T10:20:33.046Z,1.90
2018-06-28T10:21:33.038Z,2.20
2018-06-28T10:22:33.028Z,1.80
2018-06-28T10:23:33.016Z,2.00
2018-06-28T10:24:33.065Z,2.20
2018-06-28T10:25:33.005Z,2.00
2018-06-28T10:26:32.984Z,2.10
2018-06-28T10:27:32.976Z,1.80
2018-06-28T10:28:33.118Z,2.00
2018-06-28T10:29:32.969Z,1.80
2018-06-28T10:30:32.943Z,2.20
2018-06-28T10:31:32.933Z,1.70
2018-06-28T10:32:32.921Z,2.00
2018-06-28T10:33:32.911Z,2.20
2018-06-28T10:34:32.901Z,2.20
2018-06-28T10:35:32.891Z,2.30
2018-06-28T10:36:32.884Z,2.10
2018-06-28T10:37:32.872Z,2.10
2018-06-28T10:38:32.865Z,2.30
2018-06-28T10:39:32.850Z,2.50
2018-06-28T10:40:32.839Z,2.40
2018-06-28T10:41:32.834Z,1.80
2018-06-28T10:42:32.822Z,2.10
2018-06-28T10:43:32.811Z,2.10
2018-06-28T10:44:32.804Z,2.00
2018-06-28T10:45:32.794Z,2.20
2018-06-28T10:46:32.778Z,2.20
2018-06-28T10:47:32.775Z,2.30
2018-06-28T10:48:32.756Z,2.20
2018-06-28T10:49:32.758Z,2.30
2018-06-28T10:50:32.780Z,2.30
2018-06-28T10:51:32.726Z,2.40
2018-06-28T10:52:32.722Z,2.20
2018-06-28T10:53:32.705Z,2.30
2018-06-28T10:54:32.700Z,2.20
2018-06-28T10:55:32.683Z,2.10
2018-06-28T10:56:32.762Z,2.30
2018-06-28T10:57:32.669Z,2.30
2018-06-28T10:58:32.664Z,2.30
2018-06-28T10:59:32.685Z,2.30
2018-06-28T11:00:32.640Z,2.40
2018-06-28T11:01:32.623Z,2.10
2018-06-28T11:02:32.623Z,2.30
2018-06-28T11:03:32.605Z,2.00
2018-06-28T11:04:32.596Z,2.50
2018-06-28T11:05:32.648Z,2.50
2018-06-28T11:06:32.581Z,2.10
2018-06-28T11:07:32.592Z,2.20
2018-06-28T11:08:32.608Z,2.30
2018-06-28T11:09:32.546Z,1.80
2018-06-28T11:10:32.536Z,2.70
2018-06-28T11:11:32.525Z,2.20
2018-06-28T11:12:32.525Z,2.20
2018-06-28T11:13:32.508Z,2.30
2018-06-28T11:14:32.493Z,2.40
2018-06-28T11:15:32.489Z,2.30
2018-06-28T11:16:32.502Z,2.20
2018-06-28T11:17:32.462Z,2.10
2018-06-28T11:18:32.518Z,2.70
2018-06-28T11:19:32.449Z,1.90
2018-06-28T11:20:32.432Z,2.10
2018-06-28T11:21:32.439Z,1.90
2018-06-28T11:22:32.419Z,2.40
2018-06-28T11:23:32.407Z,2.20
2018-06-28T11:24:32.449Z,2.10
2018-06-28T11:25:32.392Z,2.20
2018-06-28T11:26:32.425Z,2.10
2018-06-28T11:27:32.360Z,2.20
2018-06-28T11:28:32.352Z,2.10
2018-06-28T11:29:32.348Z,2.00
2018-06-28T11:30:32.337Z,1.90
2018-06-28T11:31:32.338Z,2.00
2018-06-28T11:32:32.314Z,2.00
2018-06-28T11:33:32.304Z,2.20
2018-06-28T11:34:32.292Z,1.80
2018-06-28T11:35:32.283Z,2.00
2018-06-28T11:36:32.275Z,1.80
2018-06-28T11:37:32.272Z,1.60
2018-06-28T11:38:32.286Z,2.20
2018-06-28T11:39:32.245Z,1.70
2018-06-28T11:40:32.235Z,1.80
2018-06-28T11:41:32.230Z,1.80
2018-06-28T11:42:32.216Z,1.80
2018-06-28T11:43:32.204Z,1.70
2018-06-28T11:44:32.195Z,1.50
2018-06-28T11:45:32.188Z,1.60
2018-06-28T11:46:32.181Z,1.60
2018-06-28T11:47:32.165Z,2.00
2018-06-28T11:48:32.212Z,1.80
2018-06-28T11:49:32.149Z,1.60
2018-06-28T11:50:32.150Z,1.90
2018-06-28T11:51:32.126Z,1.80
2018-06-28T11:52:32.120Z,1.70
2018-06-28T11:53:32.108Z,1.60
2018-06-28T11:54:32.097Z,1.80
2018-06-28T11:55:32.095Z,2.00
2018-06-28T11:56:32.077Z,1.80
2018-06-28T11:57:32.066Z,1.70
2018-06-28T11:58:32.060Z,1.80
2018-06-28T11:59:32.045Z,1.80
2018-06-28T12:00:32.037Z,2.00
2018-06-28T12:01:32.107Z,1.80
2018-06-28T12:02:32.016Z,1.80
2018-06-28T12:03:32.010Z,1.80
2018-06-28T12:04:32.054Z,1.70
2018-06-28T12:05:32.042Z,1.70
2018-06-28T12:06:31.980Z,1.70
2018-06-28T12:07:31.970Z,1.90
2018-06-28T12:08:31.958Z,1.70
2018-06-28T12:09:31.957Z,2.00
2018-06-28T12:10:31.940Z,1.80
2018-06-28T12:11:31.930Z,1.70
2018-06-28T12:12:31.930Z,1.80
2018-06-28T12:13:31.917Z,1.90
2018-06-28T12:14:31.903Z,1.90
2018-06-28T12:15:31.893Z,1.90
2018-06-28T12:16:31.887Z,2.00
2018-06-28T12:17:31.882Z,1.80
2018-06-28T12:18:31.883Z,1.80
2018-06-28T12:19:31.857Z,2.00
2018-06-28T12:20:31.850Z,1.80
2018-06-28T12:21:31.852Z,2.00
2018-06-28T12:22:31.827Z,2.10
2018-06-28T12:23:31.816Z,1.90
2018-06-28T12:24:31.808Z,2.10
2018-06-28T12:25:31.821Z,1.90
2018-06-28T12:26:31.790Z,1.90
2018-06-28T12:27:31.780Z,1.70
2018-06-28T12:28:31.768Z,1.90
2018-06-28T12:29:31.763Z,2.20
2018-06-28T12:30:31.750Z,1.90
2018-06-28T12:31:31.742Z,2.20
2018-06-28T12:32:31.739Z,2.10
2018-06-28T12:33:31.725Z,2.20
2018-06-28T12:34:31.714Z,2.10
2018-06-28T12:35:31.710Z,2.10
2018-06-28T12:36:31.698Z,2.30
2018-06-28T12:37:31.689Z,2.20
2018-06-28T12:38:31.681Z,2.10
2018-06-28T12:39:31.665Z,1.90
2018-06-28T12:40:31.667Z,1.50
2018-06-28T12:41:31.655Z,2.20
2018-06-28T12:42:31.651Z,2.00
2018-06-28T12:43:31.626Z,2.30
2018-06-28T12:44:31.623Z,2.30
2018-06-28T12:45:31.611Z,2.10
2018-06-28T12:46:31.646Z,1.70
2018-06-28T12:47:31.592Z,2.00
2018-06-28T12:48:31.587Z,2.00
2018-06-28T12:49:31.577Z,2.00
2018-06-28T12:50:31.563Z,2.00
2018-06-28T12:51:31.554Z,2.10
2018-06-28T12:52:31.541Z,1.80
2018-06-28T12:53:31.535Z,1.90
2018-06-28T12:54:31.525Z,2.10
2018-06-28T12:55:31.510Z,2.00
2018-06-28T12:56:31.502Z,1.90
2018-06-28T12:57:31.499Z,2.00
2018-06-28T12:58:31.486Z,2.00
2018-06-28T12:59:31.469Z,2.00
2018-06-28T13:00:31.462Z,2.00
2018-06-28T13:01:31.454Z,1.70
2018-06-28T13:02:31.448Z,1.70
2018-06-28T13:03:31.439Z,1.90
2018-06-28T13:04:31.427Z,1.90
2018-06-28T13:05:31.416Z,1.90
2018-06-28T13:06:31.407Z,1.90
2018-06-28T13:07:31.399Z,1.70
2018-06-28T13:08:31.390Z,2.00
2018-06-28T13:09:31.380Z,2.00
2018-06-28T13:10:31.420Z,2.00
2018-06-28T13:11:31.360Z,2.00
2018-06-28T13:12:31.354Z,2.30
2018-06-28T13:13:31.417Z,1.80
2018-06-28T13:14:31.336Z,1.70
2018-06-28T13:15:31.328Z,1.80
2018-06-28T13:16:31.312Z,1.60
2018-06-28T13:17:31.312Z,1.90
2018-06-28T13:18:31.293Z,1.80